Terminal Aerodrome Forecast
Issued by NWS Shreveport, LA

Home | Current Version | Previous Version | Text Only | Print | Product List | Glossary On
Versions: 1 2 3 4 5 6 7 8 9 10 11 12 13 14 15 16 17
000
FTUS44 KSHV 241700
TAFSHV
TAF
KSHV 241738Z 2418/2518 VRB05KT P6SM SCT020
     FM242100 03006KT P6SM SCT030 SCT250
     FM250200 07004KT P6SM FEW250
      TEMPO 2510/2512 5SM BR FEW250
     FM251500 11004KT P6SM FEW250=

USA.gov is the U.S. government's official web portal to all federal, state and local government web resources and services.